Pagrindinis puslapis
METAR-TAF:

METAR-TAF

Oro uostai :

Luxeuil-les-Bains, Prancūzija

platuma: 47-47N, ilguma: 006-21E, Aukštis: 278 m

Dabartinis oras

Ataskaita buvo paskelbta 15 minutes, ne 15:30 UTC
Vėjas 9 kt iš Rytų/Šiaurės Rytų, svyruoja nuo Šiaurės Rytų ir Rytų
Temperatūra 23°C
Drėgmė 29%
Slėgis 1017 hPa
Matomumas 10 km arba daugiau
nėra debesų žemiau 1500 m ir nėra kamuolinių lietaus debesų

METAR: LFSX 301530Z AUTO 07009KT 040V100 CAVOK 23/04 Q1017

Laikas: 17:45 (15:45 UTC)

Prognozė

Ataskaita buvo paskelbta 1 valandą ir 45 minutes, ne 14:00 UTC
Prognozė galioja nuo 30 metu 15 UTC su 31 metu 15 UTC
Vėjas 6 kt iš Rytų
Matomumas 10 km arba daugiau
nėra debesų žemiau 1500 m ir nėra kamuolinių lietaus debesų

TAF: LFSX 301400Z 3015/3115 08006KT CAVOK

Orai ataskaitas ir orų prognozės (METAR, TAF).

turimą stotys yra geltonos ir raudonos taškus žemėlapyje.

Perkelti pele per norėdami pamatyti stoties vardą.

Tada spustelėkite, norėdami matyti oro stebėjimo ir prognozės.

Norėdami pakeisti žemėlapį: spustelėkite ant žalios mygtukų su juodo kryžiaus žemyn,; žalią mygtuką su brūkšneliu, jei norite nutolinti; arba žalių rodyklių gretimoms žemėlapius.


METAR-TAF: